createdAt,value
2023-03-22T00:01:37.655Z,15.65
2023-03-22T00:04:24.549Z,15.63
2023-03-22T00:07:11.435Z,15.60
2023-03-22T00:09:58.223Z,15.60
2023-03-22T00:12:45.109Z,15.58
2023-03-22T00:15:32.399Z,15.56
2023-03-22T00:18:19.455Z,15.55
2023-03-22T00:21:13.728Z,15.52
2023-03-22T00:24:00.584Z,15.50
2023-03-22T00:26:47.526Z,15.47
2023-03-22T00:29:34.364Z,15.46
2023-03-22T00:32:21.233Z,15.45
2023-03-22T00:35:09.488Z,15.43
2023-03-22T00:37:56.368Z,15.40
2023-03-22T00:40:43.208Z,15.39
2023-03-22T00:43:30.200Z,15.37
2023-03-22T00:46:19.922Z,15.35
2023-03-22T00:49:06.830Z,15.33
2023-03-22T00:51:53.963Z,15.31
2023-03-22T00:54:40.978Z,15.27
2023-03-22T00:57:27.794Z,15.27
2023-03-22T01:00:16.385Z,15.25
2023-03-22T01:03:05.081Z,15.24
2023-03-22T01:05:55.553Z,15.21
2023-03-22T01:08:42.469Z,15.19
2023-03-22T01:11:29.307Z,15.19
2023-03-22T01:14:16.283Z,15.16
2023-03-22T01:17:03.559Z,15.14
2023-03-22T01:19:50.405Z,15.12
2023-03-22T01:22:37.364Z,15.11
2023-03-22T01:25:24.665Z,15.09
2023-03-22T01:28:11.537Z,15.09
2023-03-22T01:31:01.809Z,15.06
2023-03-22T01:33:48.761Z,15.05
2023-03-22T01:36:36.763Z,15.03
2023-03-22T01:39:23.622Z,15.00
2023-03-22T01:42:14.300Z,14.98
2023-03-22T01:45:30.416Z,14.94
2023-03-22T01:48:19.024Z,14.93
2023-03-22T01:51:26.384Z,14.91
2023-03-22T01:54:18.117Z,14.90
2023-03-22T01:57:04.959Z,14.87
2023-03-22T01:59:51.852Z,14.84
2023-03-22T02:02:38.885Z,14.82
2023-03-22T02:05:25.982Z,14.80
2023-03-22T02:08:15.147Z,14.78
2023-03-22T02:11:03.854Z,14.75
2023-03-22T02:14:12.537Z,14.74
2023-03-22T02:17:27.712Z,14.72
2023-03-22T02:20:49.702Z,14.67
2023-03-22T02:24:05.541Z,14.63
2023-03-22T02:27:16.305Z,14.61
2023-03-22T02:30:24.906Z,14.58
2023-03-22T02:33:11.730Z,14.56
2023-03-22T02:36:22.773Z,14.55
2023-03-22T02:39:16.532Z,14.55
2023-03-22T02:42:28.628Z,14.51
2023-03-22T02:45:23.425Z,14.51
2023-03-22T02:48:18.883Z,14.48
2023-03-22T02:51:11.820Z,14.45
2023-03-22T02:54:21.766Z,14.44
2023-03-22T02:57:15.716Z,14.42
2023-03-22T03:00:10.503Z,14.40
2023-03-22T03:03:00.229Z,14.37
2023-03-22T03:05:49.916Z,14.34
2023-03-22T03:08:37.880Z,14.33
2023-03-22T03:11:25.305Z,14.32
2023-03-22T03:14:25.991Z,14.31
2023-03-22T03:17:18.890Z,14.29
2023-03-22T03:20:24.719Z,14.27
2023-03-22T03:23:18.102Z,14.24
2023-03-22T03:26:28.737Z,14.22
2023-03-22T03:29:34.271Z,14.18
2023-03-22T03:32:31.572Z,14.18
2023-03-22T03:35:25.583Z,14.16
2023-03-22T03:38:17.533Z,14.12
2023-03-22T03:41:07.292Z,14.11
2023-03-22T03:43:56.133Z,14.09
2023-03-22T03:46:44.458Z,14.07
2023-03-22T03:49:31.304Z,14.05
2023-03-22T03:52:18.440Z,14.03
2023-03-22T03:55:06.204Z,14.01
2023-03-22T03:57:53.093Z,13.97
2023-03-22T04:00:40.335Z,13.95
2023-03-22T04:03:27.337Z,13.93
2023-03-22T04:06:14.405Z,13.89
2023-03-22T04:09:01.754Z,13.88
2023-03-22T04:11:48.637Z,13.84
2023-03-22T04:14:35.732Z,13.83
2023-03-22T04:17:23.033Z,13.80
2023-03-22T04:20:11.220Z,13.77
2023-03-22T04:23:00.264Z,13.75
2023-03-22T04:25:50.175Z,13.72
2023-03-22T04:28:37.090Z,13.70
2023-03-22T04:31:27.144Z,13.67
2023-03-22T04:34:14.059Z,13.64
2023-03-22T04:37:02.693Z,13.61
2023-03-22T04:39:49.610Z,13.59
2023-03-22T04:42:36.573Z,13.57
2023-03-22T04:45:24.028Z,13.55
2023-03-22T04:48:11.381Z,13.53
2023-03-22T04:50:58.351Z,13.49
2023-03-22T04:53:45.203Z,13.46
2023-03-22T04:56:32.315Z,13.44
2023-03-22T04:59:20.331Z,13.42
2023-03-22T05:02:07.276Z,13.40
2023-03-22T05:04:54.140Z,13.37
2023-03-22T05:07:41.544Z,13.34
2023-03-22T05:10:28.400Z,13.33
2023-03-22T05:13:15.410Z,13.30
2023-03-22T05:16:02.335Z,13.29
2023-03-22T05:18:50.057Z,13.25
2023-03-22T05:21:40.315Z,13.23
2023-03-22T05:24:27.668Z,13.20
2023-03-22T05:27:14.524Z,13.18
2023-03-22T05:30:02.233Z,13.15
2023-03-22T05:32:49.630Z,13.13
2023-03-22T05:35:39.263Z,13.10
2023-03-22T05:38:26.238Z,13.08
2023-03-22T05:41:13.760Z,13.05
2023-03-22T05:44:01.080Z,13.02
2023-03-22T05:46:48.017Z,12.99
2023-03-22T05:49:34.968Z,12.98
2023-03-22T05:52:21.858Z,12.96
2023-03-22T05:55:09.299Z,12.94
2023-03-22T05:57:56.633Z,12.93
2023-03-22T06:00:43.940Z,12.91
2023-03-22T06:03:31.276Z,12.90
2023-03-22T06:06:18.154Z,12.89
2023-03-22T06:09:16.242Z,12.87
2023-03-22T06:12:03.946Z,12.87
2023-03-22T06:14:50.823Z,12.86
2023-03-22T06:17:37.879Z,12.84
2023-03-22T06:20:25.678Z,12.84
2023-03-22T06:23:12.543Z,12.93
2023-03-22T06:25:59.596Z,13.59
2023-03-22T06:28:47.022Z,14.18
2023-03-22T06:31:33.866Z,14.00
2023-03-22T06:34:20.744Z,13.82
2023-03-22T06:37:07.558Z,13.66
2023-03-22T06:39:54.450Z,13.57
2023-03-22T06:42:41.321Z,13.48
2023-03-22T06:45:33.546Z,13.42
2023-03-22T06:48:20.675Z,13.35
2023-03-22T06:51:07.631Z,13.31
2023-03-22T06:53:54.564Z,13.27
2023-03-22T06:56:41.560Z,13.22
2023-03-22T06:59:28.471Z,13.18
2023-03-22T07:02:15.462Z,13.15
2023-03-22T07:05:02.356Z,13.11
2023-03-22T07:07:49.293Z,13.06
2023-03-22T07:10:36.146Z,13.05
2023-03-22T07:13:23.025Z,13.02
2023-03-22T07:16:10.321Z,13.01
2023-03-22T07:18:57.490Z,13.03
2023-03-22T07:21:44.459Z,13.02
2023-03-22T07:24:31.467Z,13.05
2023-03-22T07:27:19.156Z,13.06
2023-03-22T07:30:09.026Z,13.06
2023-03-22T07:32:56.573Z,13.11
2023-03-22T07:35:43.487Z,13.12
2023-03-22T07:38:30.521Z,13.16
2023-03-22T07:41:18.368Z,13.19
2023-03-22T07:44:17.381Z,13.21
2023-03-22T07:47:05.405Z,13.26
2023-03-22T07:49:52.483Z,13.30
2023-03-22T07:52:40.558Z,13.34
2023-03-22T07:55:27.437Z,13.38
2023-03-22T07:58:15.064Z,13.43
2023-03-22T08:01:09.087Z,13.47
2023-03-22T08:03:55.965Z,13.54
2023-03-22T08:06:42.847Z,13.59
2023-03-22T08:09:29.758Z,13.63
2023-03-22T08:12:16.843Z,13.67
2023-03-22T08:15:04.060Z,13.73
2023-03-22T08:17:50.972Z,13.79
2023-03-22T08:20:38.342Z,13.83
2023-03-22T08:23:40.536Z,13.88
2023-03-22T08:26:28.372Z,13.91
2023-03-22T08:29:16.109Z,13.94
2023-03-22T08:32:04.400Z,14.00
2023-03-22T08:34:52.793Z,14.06
2023-03-22T08:37:40.337Z,14.12
2023-03-22T08:40:27.376Z,14.19
2023-03-22T08:43:14.316Z,14.23
2023-03-22T08:46:01.171Z,14.27
2023-03-22T08:48:50.812Z,14.30
2023-03-22T08:51:39.415Z,14.35
2023-03-22T08:54:28.095Z,14.40
2023-03-22T08:57:16.524Z,14.45
2023-03-22T09:00:06.791Z,14.51
2023-03-22T09:02:53.652Z,14.55
2023-03-22T09:05:40.994Z,14.58
2023-03-22T09:08:29.187Z,14.61
2023-03-22T09:11:17.951Z,14.66
2023-03-22T09:14:04.995Z,14.71
2023-03-22T09:16:51.870Z,14.75
2023-03-22T09:19:38.753Z,14.83
2023-03-22T09:22:25.576Z,14.87
2023-03-22T09:25:13.290Z,14.90
2023-03-22T09:28:00.239Z,14.95
2023-03-22T09:30:47.159Z,15.00
2023-03-22T09:33:35.604Z,15.05
2023-03-22T09:36:22.459Z,15.08
2023-03-22T09:39:10.115Z,15.11
2023-03-22T09:42:02.612Z,15.15
2023-03-22T09:44:51.137Z,15.20
2023-03-22T09:47:45.064Z,15.25
2023-03-22T09:50:32.810Z,15.30
2023-03-22T09:53:20.590Z,15.36
2023-03-22T09:56:17.954Z,15.43
2023-03-22T09:59:23.060Z,15.51
2023-03-22T10:02:39.773Z,15.54
2023-03-22T10:05:37.929Z,15.60
2023-03-22T10:08:42.109Z,15.63
2023-03-22T10:11:35.066Z,15.69
2023-03-22T10:14:28.284Z,15.74
2023-03-22T10:17:18.453Z,15.78
2023-03-22T10:20:17.477Z,15.79
2023-03-22T10:23:06.721Z,15.82
2023-03-22T10:25:53.954Z,15.88
2023-03-22T10:28:44.043Z,15.93
2023-03-22T10:31:32.108Z,15.97
2023-03-22T10:34:22.568Z,16.03
2023-03-22T10:37:15.968Z,16.07
2023-03-22T10:40:08.415Z,16.11
2023-03-22T10:43:00.085Z,16.16
2023-03-22T10:45:47.164Z,16.21
2023-03-22T10:48:42.592Z,16.27
2023-03-22T10:51:34.657Z,16.31
2023-03-22T10:54:21.951Z,16.36
2023-03-22T10:57:08.809Z,16.43
2023-03-22T10:59:57.181Z,16.49
2023-03-22T11:02:51.510Z,16.50
2023-03-22T11:05:38.632Z,16.55
2023-03-22T11:08:25.623Z,16.60
2023-03-22T11:11:18.283Z,16.67
2023-03-22T11:14:05.025Z,16.73
2023-03-22T11:16:58.513Z,16.80
2023-03-22T11:20:02.206Z,16.84
2023-03-22T11:22:49.466Z,16.89
2023-03-22T11:25:38.872Z,16.96
2023-03-22T11:28:35.444Z,17.04
2023-03-22T11:31:24.645Z,17.08
2023-03-22T11:34:17.952Z,17.16
2023-03-22T11:37:08.013Z,17.21
2023-03-22T11:40:00.279Z,17.25
2023-03-22T11:42:47.929Z,17.28
2023-03-22T11:45:37.504Z,17.37
2023-03-22T11:48:27.539Z,17.40
2023-03-22T11:51:18.025Z,17.43
2023-03-22T11:54:08.770Z,17.46
2023-03-22T11:56:59.073Z,17.51
2023-03-22T11:59:49.017Z,17.55
2023-03-22T12:02:41.747Z,17.58
2023-03-22T12:05:31.552Z,17.63
2023-03-22T12:08:42.824Z,17.67
2023-03-22T12:11:34.379Z,17.74
2023-03-22T12:14:33.355Z,17.76
2023-03-22T12:17:37.632Z,17.82
2023-03-22T12:20:30.563Z,17.85
2023-03-22T12:23:23.223Z,17.91
2023-03-22T12:26:10.395Z,17.96
2023-03-22T12:29:00.704Z,18.02
2023-03-22T12:32:09.842Z,18.07
2023-03-22T12:35:05.424Z,18.10
2023-03-22T12:38:11.182Z,18.14
2023-03-22T12:41:01.785Z,18.19
2023-03-22T12:43:53.514Z,18.24
2023-03-22T12:46:49.350Z,18.26
2023-03-22T12:49:40.505Z,18.28
2023-03-22T12:52:45.626Z,18.34
2023-03-22T12:55:36.085Z,18.38
2023-03-22T12:58:24.286Z,18.40
2023-03-22T13:01:12.965Z,18.42
2023-03-22T13:03:59.948Z,18.47
2023-03-22T13:06:47.780Z,18.51
2023-03-22T13:09:41.924Z,18.55
2023-03-22T13:12:31.718Z,18.58
2023-03-22T13:15:41.747Z,18.64
2023-03-22T13:18:37.639Z,18.67
2023-03-22T13:21:29.876Z,18.69
2023-03-22T13:24:16.676Z,18.71
2023-03-22T13:27:07.385Z,18.72
2023-03-22T13:29:57.950Z,18.75
2023-03-22T13:32:52.575Z,18.78
2023-03-22T13:35:54.282Z,18.83
2023-03-22T13:38:42.923Z,18.86
2023-03-22T13:41:30.754Z,18.89
2023-03-22T13:44:31.115Z,18.92
2023-03-22T13:47:36.520Z,18.94
2023-03-22T13:50:28.472Z,18.96
2023-03-22T13:53:21.558Z,19.00
2023-03-22T13:56:12.569Z,19.04
2023-03-22T13:58:59.939Z,19.04
2023-03-22T14:01:51.567Z,19.06
2023-03-22T14:04:51.070Z,19.09
2023-03-22T14:07:47.211Z,19.13
2023-03-22T14:10:44.580Z,19.16
2023-03-22T14:13:46.499Z,19.20
2023-03-22T14:16:49.233Z,19.22
2023-03-22T14:19:36.344Z,19.24
